createdAt,value
2022-09-27T00:04:31.640Z,15.05
2022-09-27T00:09:53.796Z,13.55
2022-09-27T00:15:17.826Z,18.97
2022-09-27T00:20:41.109Z,21.60
2022-09-27T00:26:08.804Z,14.30
2022-09-27T00:31:45.281Z,16.77
2022-09-27T00:37:07.584Z,14.87
2022-09-27T00:42:30.799Z,18.63
2022-09-27T00:48:11.536Z,18.47
2022-09-27T00:53:48.998Z,17.50
2022-09-27T00:59:25.031Z,19.70
2022-09-27T01:04:50.863Z,17.97
2022-09-27T01:10:13.438Z,19.70
2022-09-27T01:15:55.225Z,21.43
2022-09-27T01:21:41.966Z,24.77
2022-09-27T01:27:31.785Z,15.40
2022-09-27T01:33:08.414Z,20.72
2022-09-27T01:38:47.151Z,23.12
2022-09-27T01:44:17.162Z,23.05
2022-09-27T01:49:44.722Z,23.80
2022-09-27T01:55:11.534Z,25.27
2022-09-27T02:00:33.952Z,20.62
2022-09-27T02:06:12.793Z,21.75
2022-09-27T02:11:35.573Z,21.02
2022-09-27T02:17:08.956Z,21.33
2022-09-27T02:22:54.295Z,23.65
2022-09-27T02:28:39.628Z,23.50
2022-09-27T02:34:25.142Z,20.77
2022-09-27T02:39:48.345Z,23.83
2022-09-27T02:45:11.233Z,26.10
2022-09-27T02:50:41.454Z,27.63
2022-09-27T02:56:39.269Z,23.20
2022-09-27T03:02:27.228Z,39.17
2022-09-27T03:07:49.924Z,41.17
2022-09-27T03:13:12.662Z,41.60
2022-09-27T03:18:34.847Z,41.70
2022-09-27T03:23:57.674Z,40.80
2022-09-27T03:29:19.814Z,35.67
2022-09-27T03:34:42.155Z,39.70
2022-09-27T03:40:04.455Z,39.30
2022-09-27T03:45:27.463Z,40.17
2022-09-27T03:50:49.695Z,43.00
2022-09-27T03:56:12.330Z,58.83
2022-09-27T04:01:36.522Z,39.40
2022-09-27T04:06:59.649Z,39.77
2022-09-27T04:12:22.947Z,32.80
2022-09-27T04:17:45.550Z,35.08
2022-09-27T04:23:07.721Z,51.88
2022-09-27T04:28:30.653Z,34.63
2022-09-27T04:33:54.162Z,33.10
2022-09-27T04:39:19.730Z,32.48
2022-09-27T04:44:41.849Z,31.55
2022-09-27T04:50:03.990Z,30.57
2022-09-27T04:55:28.037Z,31.50
2022-09-27T05:00:51.840Z,33.73
2022-09-27T05:06:14.850Z,31.20
2022-09-27T05:11:38.441Z,31.10
2022-09-27T05:17:01.638Z,29.47
2022-09-27T05:22:27.345Z,29.53
2022-09-27T05:27:50.013Z,29.95
2022-09-27T05:33:12.181Z,33.60
2022-09-27T05:38:35.537Z,32.03
2022-09-27T05:43:58.227Z,33.17
2022-09-27T05:49:20.952Z,31.37
2022-09-27T05:54:43.109Z,29.63
2022-09-27T06:00:05.248Z,31.53
2022-09-27T06:05:27.640Z,31.63
2022-09-27T06:10:53.913Z,26.12
2022-09-27T06:16:17.468Z,27.50
2022-09-27T06:21:39.812Z,31.65
2022-09-27T06:27:02.237Z,28.80
2022-09-27T06:32:24.670Z,31.57
2022-09-27T06:37:47.878Z,28.67
2022-09-27T06:43:17.135Z,27.82
2022-09-27T06:48:40.250Z,29.20
2022-09-27T06:54:02.694Z,24.32
2022-09-27T06:59:42.968Z,26.52
2022-09-27T07:05:06.765Z,25.33
2022-09-27T07:10:30.766Z,27.07
2022-09-27T07:15:54.573Z,28.53
2022-09-27T07:21:18.479Z,24.10
2022-09-27T07:26:40.624Z,27.10
2022-09-27T07:32:02.769Z,27.93
2022-09-27T07:37:25.027Z,28.33
2022-09-27T07:42:49.036Z,27.07
2022-09-27T07:48:12.511Z,28.73
2022-09-27T07:53:34.651Z,27.42
2022-09-27T07:58:56.838Z,25.15
2022-09-27T08:04:19.159Z,29.25
2022-09-27T08:09:41.295Z,29.43
2022-09-27T08:15:04.727Z,26.42
2022-09-27T08:20:27.079Z,23.50
2022-09-27T08:25:49.510Z,24.87
2022-09-27T08:31:11.920Z,28.40
2022-09-27T08:36:36.292Z,26.13
2022-09-27T08:42:11.847Z,24.33
2022-09-27T08:47:41.451Z,24.33
2022-09-27T08:53:14.011Z,25.37
2022-09-27T08:58:49.720Z,24.63
2022-09-27T09:04:16.100Z,22.53
2022-09-27T09:10:05.825Z,22.47
2022-09-27T09:15:57.126Z,23.67
2022-09-27T09:21:32.899Z,20.80
2022-09-27T09:27:11.907Z,20.73
2022-09-27T09:33:17.887Z,21.97
2022-09-27T09:39:11.859Z,18.23
2022-09-27T09:44:59.547Z,18.48
2022-09-27T09:50:36.022Z,17.05
2022-09-27T09:56:05.260Z,17.42
2022-09-27T10:01:48.902Z,15.93
2022-09-27T10:07:21.792Z,18.73
2022-09-27T10:12:45.248Z,20.80
2022-09-27T10:18:10.837Z,19.53
2022-09-27T10:23:35.830Z,18.10
2022-09-27T10:28:59.691Z,19.33
2022-09-27T10:34:26.650Z,15.77
2022-09-27T10:39:50.086Z,17.13
2022-09-27T10:45:33.790Z,19.97
2022-09-27T10:51:05.105Z,18.40
2022-09-27T10:56:37.503Z,15.33
2022-09-27T11:02:01.414Z,16.03
2022-09-27T11:07:29.782Z,15.60
2022-09-27T11:12:51.940Z,16.13
2022-09-27T11:18:37.544Z,16.07
2022-09-27T11:24:21.074Z,15.73
2022-09-27T11:30:17.999Z,16.50
2022-09-27T11:41:44.096Z,19.43
2022-09-27T11:47:22.955Z,18.03
2022-09-27T11:53:19.226Z,20.73
2022-09-27T11:59:25.988Z,18.53
2022-09-27T12:05:40.684Z,17.67
2022-09-27T12:11:13.821Z,21.50
2022-09-27T12:16:39.531Z,20.10
2022-09-27T12:22:16.143Z,17.17
2022-09-27T12:28:02.384Z,19.73
2022-09-27T12:33:51.765Z,19.60
2022-09-27T12:39:30.831Z,19.33
2022-09-27T12:44:54.668Z,21.70
2022-09-27T12:50:53.133Z,20.27
2022-09-27T12:56:31.699Z,22.20
2022-09-27T13:02:08.276Z,21.80
2022-09-27T13:08:18.925Z,22.77
2022-09-27T13:13:42.414Z,24.63
2022-09-27T13:19:17.883Z,26.83
2022-09-27T13:25:01.600Z,26.27
2022-09-27T13:30:31.836Z,28.67
2022-09-27T13:35:58.938Z,25.77
2022-09-27T13:41:37.892Z,28.77
2022-09-27T13:47:27.803Z,27.00
2022-09-27T13:52:55.217Z,26.53
2022-09-27T13:58:41.897Z,27.47
2022-09-27T14:04:07.688Z,25.13
2022-09-27T14:09:37.879Z,25.40
2022-09-27T14:15:02.122Z,28.70
2022-09-27T14:25:54.435Z,29.87
2022-09-27T14:31:38.457Z,31.17
2022-09-27T14:37:20.917Z,31.17
2022-09-27T14:42:46.202Z,31.33
2022-09-27T14:48:09.843Z,32.30
2022-09-27T14:53:37.091Z,32.47
2022-09-27T14:59:06.321Z,33.63
2022-09-27T15:04:32.662Z,35.03
2022-09-27T15:09:56.790Z,36.42
2022-09-27T15:15:21.309Z,32.70
2022-09-27T15:20:46.654Z,33.40
2022-09-27T15:26:35.535Z,29.55
2022-09-27T15:32:09.666Z,33.88
2022-09-27T15:37:50.787Z,25.40
2022-09-27T15:43:19.321Z,17.30
2022-09-27T15:48:42.528Z,20.33
2022-09-27T15:54:04.683Z,16.52
2022-09-27T15:59:37.255Z,21.23
2022-09-27T16:05:00.005Z,11.83
2022-09-27T16:10:48.695Z,8.10
2022-09-27T16:16:12.591Z,6.03
2022-09-27T16:21:34.788Z,6.50
2022-09-27T16:26:57.874Z,6.70
2022-09-27T16:32:20.327Z,5.83
2022-09-27T16:37:42.538Z,6.15
2022-09-27T16:43:08.257Z,5.25
2022-09-27T16:48:30.601Z,5.00
2022-09-27T16:53:52.789Z,4.87
2022-09-27T16:59:16.538Z,6.45
2022-09-27T17:04:40.060Z,5.53
2022-09-27T17:10:02.630Z,5.73
2022-09-27T17:15:26.135Z,7.35
2022-09-27T17:20:49.319Z,9.63
2022-09-27T17:26:23.801Z,9.10
2022-09-27T17:31:47.577Z,9.83
2022-09-27T17:37:11.333Z,15.15
2022-09-27T17:42:34.575Z,18.62
2022-09-27T17:48:14.589Z,14.43
2022-09-27T17:53:37.793Z,16.33
2022-09-27T17:59:08.383Z,14.13
2022-09-27T18:04:32.872Z,15.13
2022-09-27T18:09:55.502Z,12.82
2022-09-27T18:15:19.978Z,17.73
2022-09-27T18:20:44.491Z,16.32
2022-09-27T18:26:14.154Z,15.40
2022-09-27T18:37:18.014Z,11.53
2022-09-27T18:42:40.439Z,10.45
2022-09-27T18:48:02.629Z,9.98
2022-09-27T18:53:25.334Z,9.93
2022-09-27T18:58:48.597Z,11.60
2022-09-27T19:04:13.970Z,6.83
2022-09-27T19:09:36.691Z,6.30
2022-09-27T19:14:58.836Z,7.90
2022-09-27T19:20:21.230Z,7.73
2022-09-27T19:25:45.077Z,10.70
2022-09-27T19:31:09.347Z,10.27
2022-09-27T19:36:32.713Z,8.43
2022-09-27T19:41:54.842Z,9.97
2022-09-27T19:47:18.143Z,11.13
2022-09-27T19:52:41.637Z,14.43
2022-09-27T19:58:03.779Z,13.17
2022-09-27T20:03:25.920Z,11.53
2022-09-27T20:08:48.989Z,12.93
2022-09-27T20:14:11.861Z,12.37
2022-09-27T20:19:34.498Z,11.97
2022-09-27T20:24:56.646Z,12.20
2022-09-27T20:30:19.437Z,14.33
2022-09-27T20:35:41.562Z,15.37
2022-09-27T20:41:11.573Z,17.43
2022-09-27T20:46:36.152Z,19.80
2022-09-27T20:52:00.516Z,21.17
2022-09-27T20:57:40.205Z,25.33
2022-09-27T21:02:48.215Z,27.47
2022-09-27T21:08:13.357Z,25.30
2022-09-27T21:13:35.906Z,24.63
2022-09-27T21:18:59.138Z,22.07
2022-09-27T21:24:21.401Z,25.57
2022-09-27T21:29:43.525Z,21.50
2022-09-27T21:35:06.294Z,22.03
2022-09-27T21:40:29.724Z,19.82
2022-09-27T21:45:53.314Z,21.07
2022-09-27T21:51:32.279Z,18.95
2022-09-27T21:56:56.057Z,21.67
2022-09-27T22:02:18.266Z,18.60
2022-09-27T22:07:40.850Z,19.30
2022-09-27T22:13:03.045Z,19.87
2022-09-27T22:18:25.466Z,17.57
2022-09-27T22:23:47.785Z,18.03
2022-09-27T22:29:12.155Z,17.98
2022-09-27T22:34:35.672Z,18.20
2022-09-27T22:39:57.848Z,19.67
2022-09-27T22:45:21.473Z,18.10
2022-09-27T22:50:43.993Z,18.70
2022-09-27T22:56:25.217Z,16.93
2022-09-27T23:01:47.907Z,22.37
2022-09-27T23:07:10.318Z,18.17
2022-09-27T23:12:32.554Z,18.63
2022-09-27T23:17:57.822Z,21.87
2022-09-27T23:23:21.585Z,18.17
2022-09-27T23:28:45.396Z,18.97
2022-09-27T23:34:11.793Z,17.37
2022-09-27T23:39:34.295Z,17.70
2022-09-27T23:44:56.435Z,13.55
2022-09-27T23:50:19.899Z,15.27
2022-09-27T23:55:42.037Z,11.90
